createdAt,value
2023-03-15T00:00:19.874Z,10.70
2023-03-15T00:03:26.113Z,8.30
2023-03-15T00:09:39.988Z,5.90
2023-03-15T00:15:54.142Z,6.30
2023-03-15T00:19:00.582Z,6.90
2023-03-15T00:22:07.577Z,6.40
2023-03-15T00:25:14.510Z,7.10
2023-03-15T00:28:21.174Z,8.70
2023-03-15T00:31:28.485Z,8.10
2023-03-15T00:34:35.313Z,6.80
2023-03-15T00:37:41.764Z,8.40
2023-03-15T00:40:48.077Z,8.40
2023-03-15T00:43:54.816Z,10.70
2023-03-15T00:47:01.144Z,11.40
2023-03-15T00:50:08.530Z,11.10
2023-03-15T00:53:14.926Z,9.20
2023-03-15T00:56:24.454Z,9.40
2023-03-15T00:59:35.085Z,9.80
2023-03-15T01:02:41.782Z,8.70
2023-03-15T01:05:47.697Z,8.80
2023-03-15T01:08:56.152Z,8.70
2023-03-15T01:12:02.278Z,6.80
2023-03-15T01:15:12.444Z,5.60
2023-03-15T01:18:18.283Z,6.90
2023-03-15T01:21:25.187Z,10.70
2023-03-15T01:24:31.131Z,7.30
2023-03-15T01:27:37.186Z,7.20
2023-03-15T01:30:49.895Z,8.30
2023-03-15T01:33:55.965Z,9.50
2023-03-15T01:37:03.029Z,9.60
2023-03-15T01:40:13.330Z,9.20
2023-03-15T01:43:21.869Z,10.50
2023-03-15T01:46:34.399Z,10.80
2023-03-15T01:49:40.660Z,11.10
2023-03-15T01:52:47.083Z,9.80
2023-03-15T01:55:54.377Z,10.10
2023-03-15T01:59:02.745Z,10.70
2023-03-15T02:02:09.963Z,10.80
2023-03-15T02:05:20.465Z,10.20
2023-03-15T02:08:33.644Z,10.60
2023-03-15T02:11:39.727Z,10.50
2023-03-15T02:14:46.381Z,11.30
2023-03-15T02:17:52.701Z,10.80
2023-03-15T02:24:22.846Z,9.70
2023-03-15T02:27:32.048Z,9.60
2023-03-15T02:30:38.251Z,8.30
2023-03-15T02:33:47.224Z,9.30
2023-03-15T02:36:54.218Z,7.50
2023-03-15T02:39:59.974Z,8.00
2023-03-15T02:43:12.719Z,8.10
2023-03-15T02:46:19.509Z,7.70
2023-03-15T02:49:29.272Z,6.70
2023-03-15T02:52:35.226Z,6.70
2023-03-15T02:55:41.257Z,6.50
2023-03-15T02:58:47.113Z,4.90
2023-03-15T03:01:53.071Z,5.50
2023-03-15T03:04:58.928Z,4.00
2023-03-15T03:08:04.884Z,4.80
2023-03-15T03:11:10.744Z,4.80
2023-03-15T03:14:16.609Z,4.80
2023-03-15T03:17:22.494Z,8.30
2023-03-15T03:20:28.420Z,7.80
2023-03-15T03:23:35.293Z,7.30
2023-03-15T03:26:41.151Z,8.90
2023-03-15T03:29:47.215Z,7.80
2023-03-15T03:32:53.628Z,7.70
2023-03-15T03:36:04.234Z,7.50
2023-03-15T03:39:10.178Z,9.40
2023-03-15T03:42:16.794Z,7.00
2023-03-15T03:45:22.640Z,6.60
2023-03-15T03:48:28.476Z,7.50
2023-03-15T03:51:35.372Z,5.80
2023-03-15T03:54:42.820Z,4.70
2023-03-15T03:57:48.590Z,5.60
2023-03-15T04:00:55.425Z,6.40
2023-03-15T04:04:01.261Z,7.00
2023-03-15T04:07:07.322Z,7.50
2023-03-15T04:10:15.888Z,8.20
2023-03-15T04:13:22.146Z,8.90
2023-03-15T04:16:27.980Z,7.60
2023-03-15T04:19:34.051Z,9.00
2023-03-15T04:22:39.981Z,11.10
2023-03-15T04:25:49.291Z,9.70
2023-03-15T04:28:56.091Z,10.20
2023-03-15T04:32:02.599Z,9.50
2023-03-15T04:35:09.972Z,10.00
2023-03-15T04:38:16.139Z,11.60
2023-03-15T04:41:22.057Z,10.50
2023-03-15T04:44:27.956Z,10.50
2023-03-15T04:47:33.716Z,10.80
2023-03-15T04:50:39.562Z,10.20
2023-03-15T04:53:45.459Z,12.00
2023-03-15T04:56:51.183Z,10.40
2023-03-15T04:59:57.749Z,11.50
2023-03-15T05:03:03.608Z,12.30
2023-03-15T05:06:09.743Z,10.90
2023-03-15T05:09:19.320Z,10.50
2023-03-15T05:12:25.684Z,13.50
2023-03-15T05:15:31.571Z,11.70
2023-03-15T05:18:37.496Z,11.00
2023-03-15T05:21:43.286Z,11.40
2023-03-15T05:24:49.098Z,12.40
2023-03-15T05:27:56.487Z,11.30
2023-03-15T05:31:03.481Z,11.00
2023-03-15T05:34:09.335Z,11.50
2023-03-15T05:37:15.118Z,12.20
2023-03-15T05:40:21.455Z,14.90
2023-03-15T05:46:32.020Z,12.50
2023-03-15T05:49:38.210Z,13.10
2023-03-15T05:52:44.906Z,14.80
2023-03-15T05:55:50.632Z,14.60
2023-03-15T05:58:56.370Z,11.40
2023-03-15T06:02:02.101Z,11.40
2023-03-15T06:05:09.067Z,12.50
2023-03-15T06:08:14.888Z,12.10
2023-03-15T06:11:21.015Z,11.70
2023-03-15T06:14:27.007Z,12.60
2023-03-15T06:17:33.377Z,12.30
2023-03-15T06:23:43.758Z,13.60
2023-03-15T06:26:49.616Z,10.30
2023-03-15T06:29:56.289Z,13.40
2023-03-15T06:33:02.925Z,10.30
2023-03-15T06:36:10.661Z,13.60
2023-03-15T06:39:16.770Z,12.20
2023-03-15T06:42:22.892Z,11.30
2023-03-15T06:45:30.632Z,12.20
2023-03-15T06:48:36.624Z,11.90
2023-03-15T06:51:45.231Z,11.70
2023-03-15T06:54:50.955Z,12.30
2023-03-15T06:57:56.782Z,9.10
2023-03-15T07:01:02.639Z,9.10
2023-03-15T07:04:09.648Z,11.30
2023-03-15T07:07:16.212Z,12.70
2023-03-15T07:10:22.475Z,11.80
2023-03-15T07:13:28.428Z,11.50
2023-03-15T07:16:34.210Z,8.70
2023-03-15T07:19:50.248Z,13.30
2023-03-15T07:23:01.563Z,12.10
2023-03-15T07:26:07.613Z,12.60
2023-03-15T07:29:13.681Z,15.30
2023-03-15T07:32:19.964Z,14.20
2023-03-15T07:38:31.230Z,14.90
2023-03-15T07:41:37.008Z,10.80
2023-03-15T07:44:42.764Z,11.20
2023-03-15T07:47:48.721Z,11.30
2023-03-15T07:50:54.489Z,10.90
2023-03-15T07:54:00.440Z,11.30
2023-03-15T07:57:07.111Z,13.30
2023-03-15T08:00:15.300Z,15.70
2023-03-15T08:03:21.456Z,12.80
2023-03-15T08:06:27.340Z,13.20
2023-03-15T08:09:34.652Z,13.20
2023-03-15T08:12:43.024Z,14.80
2023-03-15T08:15:49.626Z,14.20
2023-03-15T08:18:55.477Z,16.10
2023-03-15T08:22:01.437Z,10.40
2023-03-15T08:25:09.450Z,13.10
2023-03-15T08:28:15.729Z,15.60
2023-03-15T08:31:21.760Z,14.70
2023-03-15T08:34:27.753Z,17.30
2023-03-15T08:37:33.488Z,21.00
2023-03-15T08:40:40.786Z,14.20
2023-03-15T08:43:46.734Z,17.30
2023-03-15T08:46:52.566Z,14.80
2023-03-15T08:49:58.450Z,14.40
2023-03-15T08:53:04.229Z,15.00
2023-03-15T08:56:10.729Z,15.90
2023-03-15T08:59:28.951Z,17.80
2023-03-15T09:02:37.671Z,12.40
2023-03-15T09:05:43.806Z,12.10
2023-03-15T09:08:49.654Z,13.30
2023-03-15T09:11:56.750Z,15.40
2023-03-15T09:15:02.605Z,13.80
2023-03-15T09:18:08.793Z,15.80
2023-03-15T09:21:14.623Z,11.00
2023-03-15T09:24:20.486Z,14.30
2023-03-15T09:27:26.443Z,11.60
2023-03-15T09:30:32.453Z,13.00
2023-03-15T09:33:38.359Z,11.60
2023-03-15T09:36:44.220Z,12.50
2023-03-15T09:39:50.081Z,12.00
2023-03-15T09:43:05.478Z,12.10
2023-03-15T09:46:25.462Z,11.70
2023-03-15T09:49:40.725Z,12.00
2023-03-15T09:52:50.372Z,15.10
2023-03-15T09:55:56.458Z,13.20
2023-03-15T09:59:03.462Z,16.20
2023-03-15T10:02:20.806Z,11.70
2023-03-15T10:05:36.318Z,16.10
2023-03-15T10:08:42.309Z,13.70
2023-03-15T10:11:58.592Z,12.40
2023-03-15T10:15:23.899Z,12.90
2023-03-15T10:18:40.203Z,14.00
2023-03-15T10:21:56.703Z,14.30
2023-03-15T10:25:06.493Z,15.80
2023-03-15T10:28:18.942Z,11.80
2023-03-15T10:31:41.037Z,13.10
2023-03-15T10:34:52.869Z,12.90
2023-03-15T10:37:58.984Z,13.60
2023-03-15T10:41:08.846Z,11.10
2023-03-15T10:44:19.615Z,13.90
2023-03-15T10:47:27.678Z,9.40
2023-03-15T10:50:35.319Z,12.60
2023-03-15T10:53:53.149Z,13.10
2023-03-15T10:57:03.821Z,11.40
2023-03-15T11:04:08.071Z,14.00
2023-03-15T11:07:14.413Z,13.20
2023-03-15T11:10:26.084Z,11.90
2023-03-15T11:13:33.927Z,14.90
2023-03-15T11:16:40.885Z,12.30
2023-03-15T11:19:53.103Z,12.20
2023-03-15T11:23:00.133Z,11.90
2023-03-15T11:26:06.367Z,12.30
2023-03-15T11:29:21.629Z,10.80
2023-03-15T11:32:31.101Z,9.60
2023-03-15T11:35:44.500Z,12.50
2023-03-15T11:38:54.164Z,14.60
2023-03-15T11:42:06.825Z,10.40
2023-03-15T11:45:19.373Z,10.10
2023-03-15T11:48:31.173Z,11.90
2023-03-15T11:51:38.672Z,9.80
2023-03-15T11:54:45.184Z,8.90
2023-03-15T11:57:52.238Z,12.80
2023-03-15T12:01:04.757Z,10.90
2023-03-15T12:04:51.001Z,9.80
2023-03-15T12:08:20.254Z,11.60
2023-03-15T12:11:45.452Z,11.50
2023-03-15T12:15:02.598Z,12.10
2023-03-15T12:18:14.938Z,10.40
2023-03-15T12:21:33.129Z,8.80
2023-03-15T12:24:41.076Z,9.30
2023-03-15T12:27:51.486Z,9.50
2023-03-15T12:31:02.077Z,10.00
2023-03-15T12:34:15.742Z,10.40
2023-03-15T12:37:25.610Z,10.60
2023-03-15T12:40:50.352Z,11.70
2023-03-15T12:44:16.172Z,12.10
2023-03-15T12:50:52.540Z,11.40
2023-03-15T12:54:00.264Z,11.10
2023-03-15T12:57:07.327Z,11.50
2023-03-15T13:00:20.613Z,9.40
2023-03-15T13:03:28.744Z,22.00
2023-03-15T13:06:47.248Z,10.70
2023-03-15T13:10:09.385Z,13.60
2023-03-15T13:13:26.709Z,11.10
2023-03-15T13:16:39.141Z,12.40
2023-03-15T13:19:48.462Z,10.60
2023-03-15T13:23:04.862Z,8.90
2023-03-15T13:26:26.558Z,11.00
2023-03-15T13:29:34.303Z,9.40
2023-03-15T13:32:46.357Z,9.40
2023-03-15T13:35:58.339Z,11.20
2023-03-15T13:39:11.427Z,9.90
2023-03-15T13:42:23.968Z,11.10
2023-03-15T13:45:29.790Z,13.40
2023-03-15T13:48:37.560Z,10.70
2023-03-15T13:51:44.514Z,13.70
2023-03-15T13:54:53.317Z,13.50
2023-03-15T13:58:06.126Z,10.40
2023-03-15T14:01:15.579Z,10.30
2023-03-15T14:04:21.934Z,12.50
2023-03-15T14:10:39.103Z,30.00
2023-03-15T14:13:56.084Z,11.80
2023-03-15T14:17:08.745Z,11.50
2023-03-15T14:20:19.860Z,12.40
2023-03-15T14:23:28.290Z,12.50
2023-03-15T14:26:34.454Z,14.20
2023-03-15T14:32:55.705Z,16.80
2023-03-15T14:36:03.735Z,13.60
2023-03-15T14:39:20.927Z,13.20
2023-03-15T14:42:26.798Z,16.90
2023-03-15T14:45:34.406Z,15.50
2023-03-15T14:48:40.865Z,21.10
2023-03-15T14:51:47.465Z,16.90
2023-03-15T14:57:57.919Z,26.50
2023-03-15T15:01:05.518Z,18.70
2023-03-15T15:04:13.531Z,19.20
2023-03-15T15:07:20.747Z,14.40
2023-03-15T15:10:27.288Z,10.70
2023-03-15T15:13:33.555Z,11.40
2023-03-15T15:16:57.514Z,13.00
2023-03-15T15:20:07.367Z,17.70
2023-03-15T15:23:17.128Z,16.80
2023-03-15T15:26:26.629Z,23.20
2023-03-15T15:29:32.441Z,13.00
2023-03-15T15:32:38.199Z,13.10
2023-03-15T15:35:44.580Z,23.00
